Time;durP1;ratioP1;P1;durP2;ratioP2;P2;SDS_P1;SDS_P2;PMS_P1;PMS_P2;Temp;Humidity;BMP_temperature;BMP_pressure;BME280_temperature;BME280_humidity;BME280_pressure;Samples;Min_cycle;Max_cycle;Signal;HPM_P1;HPM_P2
2023/09/29 00:01:19;;;;;;;1.93;1.83;;;19.20;99.90;;;;;;5080156;28;20481;-81
2023/09/29 00:03:46;;;;;;;0.50;0.40;;;19.20;99.90;;;;;;5080541;28;20878;-81
2023/09/29 00:06:13;;;;;;;0.50;0.40;;;19.20;99.90;;;;;;5080036;28;20515;-82
2023/09/29 00:08:40;;;;;;;0.50;0.40;;;19.20;99.90;;;;;;5079892;28;20477;-82
2023/09/29 00:11:07;;;;;;;0.70;0.57;;;19.20;99.90;;;;;;5080361;28;20442;-82
2023/09/29 00:13:35;;;;;;;0.50;0.30;;;19.20;99.90;;;;;;5063915;28;20548;-81
2023/09/29 00:16:02;;;;;;;0.50;0.30;;;19.20;99.90;;;;;;5080157;28;20609;-82
2023/09/29 00:18:30;;;;;;;0.50;0.40;;;19.20;99.90;;;;;;5079173;28;20947;-81
2023/09/29 00:20:56;;;;;;;0.80;0.80;;;19.20;99.90;;;;;;5079500;28;20462;-81
2023/09/29 00:23:24;;;;;;;0.70;0.70;;;19.20;99.90;;;;;;5079209;28;20529;-81
2023/09/29 00:25:50;;;;;;;0.50;0.30;;;19.10;99.90;;;;;;5079524;28;20480;-81
2023/09/29 00:28:17;;;;;;;0.50;0.30;;;19.10;99.90;;;;;;5079649;28;20497;-81
2023/09/29 00:30:45;;;;;;;0.50;0.30;;;19.10;99.90;;;;;;5079933;28;20549;-81
2023/09/29 00:33:12;;;;;;;0.50;0.50;;;19.10;99.90;;;;;;5078552;28;20457;-81
2023/09/29 00:35:39;;;;;;;0.50;0.30;;;19.00;99.90;;;;;;5079628;28;20441;-81
2023/09/29 00:38:06;;;;;;;0.50;0.30;;;19.10;99.90;;;;;;5078972;28;20922;-81
2023/09/29 00:40:33;;;;;;;0.50;0.30;;;19.00;99.90;;;;;;5078965;28;20445;-81
2023/09/29 00:43:03;;;;;;;0.50;0.40;;;19.00;99.90;;;;;;5079228;28;20808;-82
2023/09/29 00:45:30;;;;;;;0.50;0.40;;;19.00;99.90;;;;;;5078764;28;20449;-81
2023/09/29 00:48:08;;;;;;;0.50;0.30;;;19.00;99.90;;;;;;5078547;28;20509;-82
2023/09/29 00:50:36;;;;;;;0.70;0.50;;;19.00;99.90;;;;;;5062078;28;20518;-81
2023/09/29 00:53:07;;;;;;;0.63;0.63;;;19.00;99.90;;;;;;5078275;28;20468;-80
2023/09/29 00:55:36;;;;;;;0.50;0.37;;;19.00;99.90;;;;;;5078048;28;20620;-80
2023/09/29 00:58:04;;;;;;;0.50;0.30;;;19.00;99.90;;;;;;5077776;28;20522;-82
2023/09/29 01:00:32;;;;;;;0.50;0.30;;;19.00;99.90;;;;;;5083115;28;20465;-81
2023/09/29 01:03:02;;;;;;;0.50;0.30;;;19.10;99.90;;;;;;5079847;28;20600;-83
2023/09/29 01:05:32;;;;;;;0.50;0.30;;;19.10;99.90;;;;;;5078797;28;20501;-83
2023/09/29 01:07:58;;;;;;;0.50;0.30;;;19.10;99.90;;;;;;5079046;28;20481;-81
2023/09/29 01:10:26;;;;;;;0.50;0.40;;;19.10;99.90;;;;;;5077675;28;20442;-82
2023/09/29 01:12:53;;;;;;;0.50;0.40;;;19.00;99.90;;;;;;5078527;28;20636;-82
2023/09/29 01:15:20;;;;;;;0.50;0.30;;;19.00;99.90;;;;;;5078698;28;20441;-82
2023/09/29 01:17:47;;;;;;;0.50;0.30;;;19.10;99.90;;;;;;5078157;28;20442;-81
2023/09/29 01:20:27;;;;;;;0.50;0.30;;;19.00;99.90;;;;;;5077793;28;20446;-82
2023/09/29 01:22:54;;;;;;;0.50;0.30;;;19.00;99.90;;;;;;5077988;28;20466;-82
2023/09/29 01:25:23;;;;;;;0.50;0.30;;;19.00;99.90;;;;;;5077684;28;20543;-82
2023/09/29 01:27:50;;;;;;;0.50;0.30;;;19.00;99.90;;;;;;5078144;28;20571;-81
2023/09/29 01:30:18;;;;;;;0.50;0.30;;;19.00;99.90;;;;;;5078203;28;20447;-82
2023/09/29 01:32:47;;;;;;;1.60;1.50;;;18.90;99.90;;;;;;5077959;28;20469;-81
2023/09/29 01:35:18;;;;;;;0.50;0.30;;;18.90;99.90;;;;;;5077239;28;20955;-81
2023/09/29 01:37:46;;;;;;;0.50;0.30;;;19.00;99.90;;;;;;5077745;28;20516;-82
2023/09/29 01:40:14;;;;;;;0.50;0.30;;;18.90;99.90;;;;;;5076906;28;20455;-81
2023/09/29 01:42:43;;;;;;;0.50;0.30;;;18.90;99.90;;;;;;5077497;28;20533;-82
2023/09/29 01:45:11;;;;;;;0.50;0.30;;;18.90;99.90;;;;;;5077692;28;20930;-82
2023/09/29 01:47:38;;;;;;;0.50;0.30;;;19.00;99.90;;;;;;5069459;28;20541;-82
2023/09/29 01:50:06;;;;;;;0.50;0.40;;;19.00;99.90;;;;;;5078147;28;20935;-82
2023/09/29 01:52:32;;;;;;;0.50;0.40;;;19.00;99.90;;;;;;5076501;28;20529;-82
2023/09/29 01:54:59;;;;;;;0.50;0.30;;;19.00;99.90;;;;;;5077363;28;20438;-82
2023/09/29 01:57:26;;;;;;;0.50;0.40;;;19.00;99.90;;;;;;5077239;28;20446;-82
2023/09/29 01:59:54;;;;;;;0.50;0.30;;;18.90;99.90;;;;;;5077373;28;20445;-81
2023/09/29 02:02:21;;;;;;;0.50;0.33;;;18.90;99.90;;;;;;5077156;28;20469;-82
2023/09/29 02:04:48;;;;;;;0.50;0.30;;;18.90;99.90;;;;;;5077113;28;20457;-81
2023/09/29 02:07:15;;;;;;;0.50;0.30;;;18.80;99.90;;;;;;5076643;28;20434;-82
2023/09/29 02:09:42;;;;;;;1.13;0.77;;;18.90;99.90;;;;;;5076988;28;20442;-81
2023/09/29 02:12:10;;;;;;;0.50;0.30;;;18.90;99.90;;;;;;5076856;28;20826;-83
2023/09/29 02:14:37;;;;;;;0.50;0.40;;;18.90;99.90;;;;;;5076526;28;20939;-82
2023/09/29 02:17:06;;;;;;;0.50;0.40;;;18.90;99.90;;;;;;5077248;28;20479;-82
2023/09/29 02:19:36;;;;;;;0.50;0.33;;;18.90;99.90;;;;;;5076894;28;20445;-81
2023/09/29 02:22:03;;;;;;;0.50;0.30;;;18.80;99.90;;;;;;5076846;28;20497;-82
2023/09/29 02:24:30;;;;;;;0.50;0.33;;;18.80;99.90;;;;;;5076635;28;20446;-81
2023/09/29 02:26:57;;;;;;;0.50;0.30;;;18.80;99.90;;;;;;5076704;28;20433;-82
2023/09/29 02:29:27;;;;;;;0.50;0.30;;;18.80;99.90;;;;;;5076382;28;20481;-81
2023/09/29 02:31:56;;;;;;;0.50;0.40;;;18.80;99.90;;;;;;5076502;28;20853;-82
2023/09/29 02:34:25;;;;;;;0.70;0.70;;;18.90;99.90;;;;;;5078136;28;20565;-81
2023/09/29 02:36:52;;;;;;;0.50;0.30;;;18.80;99.90;;;;;;5078690;28;20939;-81
2023/09/29 02:39:19;;;;;;;0.50;0.30;;;18.80;99.90;;;;;;5077227;28;20491;-81
2023/09/29 02:41:46;;;;;;;0.50;0.30;;;18.80;99.90;;;;;;5077641;28;20445;-82
2023/09/29 02:44:13;;;;;;;0.50;0.30;;;18.80;99.90;;;;;;5078093;28;20533;-82
2023/09/29 02:46:40;;;;;;;0.50;0.30;;;18.80;99.90;;;;;;5077991;28;20429;-81
2023/09/29 02:49:07;;;;;;;0.50;0.30;;;18.80;99.90;;;;;;5078630;28;20481;-82
2023/09/29 02:51:35;;;;;;;0.50;0.40;;;18.80;99.90;;;;;;5078518;28;20442;-81
2023/09/29 02:54:03;;;;;;;0.50;0.40;;;18.80;99.90;;;;;;5077827;28;20467;-82
2023/09/29 02:56:30;;;;;;;0.70;0.70;;;18.70;99.90;;;;;;5077508;28;20442;-82
2023/09/29 02:58:57;;;;;;;0.50;0.30;;;18.70;99.90;;;;;;5077765;28;20437;-81
2023/09/29 03:01:23;;;;;;;0.50;0.30;;;18.60;99.90;;;;;;5076476;28;20448;-81
2023/09/29 03:03:54;;;;;;;0.50;0.30;;;18.70;99.90;;;;;;5077525;28;20461;-82
2023/09/29 03:06:21;;;;;;;0.50;0.30;;;18.70;99.90;;;;;;5077738;28;20443;-81
2023/09/29 03:08:54;;;;;;;0.50;0.40;;;18.70;99.90;;;;;;5078600;28;20479;-82
2023/09/29 03:11:21;;;;;;;0.50;0.30;;;18.70;99.90;;;;;;5078746;28;20513;-81
2023/09/29 03:13:47;;;;;;;0.50;0.33;;;18.60;99.90;;;;;;5077903;28;20557;-81
2023/09/29 03:16:15;;;;;;;0.50;0.30;;;18.60;99.90;;;;;;5078167;28;20450;-81
2023/09/29 03:18:42;;;;;;;0.50;0.30;;;18.70;99.90;;;;;;5060928;28;20446;-82
2023/09/29 03:21:09;;;;;;;0.50;0.30;;;18.70;99.90;;;;;;5078840;28;20559;-81
2023/09/29 03:23:36;;;;;;;0.67;0.67;;;18.70;99.90;;;;;;5076238;28;20987;-81
2023/09/29 03:26:05;;;;;;;0.50;0.30;;;18.70;99.90;;;;;;5077229;28;20445;-81
2023/09/29 03:28:34;;;;;;;0.50;0.30;;;18.70;99.90;;;;;;5077478;28;20534;-82
2023/09/29 03:31:04;;;;;;;0.50;0.30;;;18.80;99.90;;;;;;5078834;28;20834;-81
2023/09/29 03:33:32;;;;;;;0.50;0.30;;;18.70;99.90;;;;;;5078704;28;20462;-82
2023/09/29 03:35:59;;;;;;;0.50;0.30;;;18.70;99.90;;;;;;5081079;28;20446;-81
2023/09/29 03:38:26;;;;;;;0.50;0.47;;;18.80;99.90;;;;;;5082007;28;20441;-81
2023/09/29 03:40:54;;;;;;;0.50;0.30;;;18.80;99.90;;;;;;5082427;28;20476;-82
2023/09/29 03:43:22;;;;;;;0.50;0.30;;;18.80;99.90;;;;;;5080721;28;20465;-82
2023/09/29 03:45:49;;;;;;;0.50;0.30;;;18.80;99.90;;;;;;5081199;28;20443;-80
2023/09/29 03:48:16;;;;;;;0.50;0.30;;;18.80;99.90;;;;;;5081335;28;20473;-82
2023/09/29 03:50:43;;;;;;;0.50;0.30;;;18.90;99.90;;;;;;5080966;28;21026;-82
2023/09/29 03:53:10;;;;;;;0.50;0.30;;;18.90;99.90;;;;;;5080925;28;20461;-82
2023/09/29 03:55:37;;;;;;;0.50;0.30;;;18.80;99.90;;;;;;5080098;28;20450;-82
2023/09/29 03:58:05;;;;;;;0.50;0.40;;;18.80;99.90;;;;;;5081126;28;20448;-83
2023/09/29 04:00:33;;;;;;;0.50;0.30;;;18.80;99.90;;;;;;5080388;28;20444;-80
2023/09/29 04:03:00;;;;;;;0.50;0.30;;;18.80;99.90;;;;;;5085644;28;20469;-82
2023/09/29 04:05:27;;;;;;;0.50;0.30;;;18.80;99.90;;;;;;5080968;28;21111;-81
2023/09/29 04:07:54;;;;;;;0.50;0.30;;;18.80;99.90;;;;;;5079572;28;20447;-81
2023/09/29 04:10:21;;;;;;;0.50;0.30;;;18.80;99.90;;;;;;5085771;28;20430;-81
2023/09/29 04:12:49;;;;;;;0.50;0.30;;;18.80;99.90;;;;;;5081507;28;20997;-80
2023/09/29 04:15:17;;;;;;;0.50;0.40;;;18.80;99.90;;;;;;5080700;28;20503;-81
2023/09/29 04:17:45;;;;;;;0.50;0.37;;;18.80;99.90;;;;;;5079950;28;20498;-81
2023/09/29 04:20:13;;;;;;;0.50;0.40;;;18.90;99.90;;;;;;5079900;28;20443;-81
2023/09/29 04:22:39;;;;;;;0.50;0.30;;;18.90;99.90;;;;;;5079286;28;20532;-81
2023/09/29 04:25:09;;;;;;;0.50;0.30;;;19.00;99.90;;;;;;5079667;28;20438;-80
2023/09/29 04:27:36;;;;;;;0.50;0.30;;;18.90;99.90;;;;;;5078221;28;20488;-82
2023/09/29 04:30:06;;;;;;;0.50;0.40;;;18.70;99.90;;;;;;5078664;28;20477;-81
2023/09/29 04:32:32;;;;;;;0.50;0.30;;;18.60;99.90;;;;;;5076316;28;20983;-81
2023/09/29 04:35:01;;;;;;;0.50;0.30;;;18.40;99.90;;;;;;5074886;28;20448;-82
2023/09/29 04:37:27;;;;;;;0.50;0.30;;;18.40;99.90;;;;;;5074404;28;20525;-80
2023/09/29 04:39:55;;;;;;;0.50;0.40;;;18.30;99.90;;;;;;5075074;28;20433;-79
2023/09/29 04:42:22;;;;;;;0.50;0.40;;;18.30;99.90;;;;;;5073958;28;20500;-80
2023/09/29 04:44:49;;;;;;;0.50;0.30;;;18.20;99.90;;;;;;5075748;28;20912;-81
2023/09/29 04:47:17;;;;;;;0.50;0.30;;;18.10;99.90;;;;;;5074680;28;20448;-81
2023/09/29 04:49:44;;;;;;;0.50;0.30;;;18.10;99.90;;;;;;5073767;28;20844;-81
2023/09/29 04:52:12;;;;;;;0.50;0.30;;;18.10;99.90;;;;;;5075661;28;20465;-82
2023/09/29 04:54:39;;;;;;;0.50;0.30;;;18.10;99.90;;;;;;5075204;28;20437;-81
2023/09/29 04:57:06;;;;;;;0.50;0.30;;;18.10;99.90;;;;;;5074672;28;20438;-81
2023/09/29 04:59:32;;;;;;;0.50;0.40;;;18.10;99.90;;;;;;5074452;28;20515;-81
2023/09/29 05:01:59;;;;;;;0.50;0.30;;;18.00;99.90;;;;;;5074681;28;20448;-81
2023/09/29 05:04:26;;;;;;;0.50;0.40;;;17.90;99.90;;;;;;5074657;28;20450;-83
2023/09/29 05:06:53;;;;;;;0.50;0.33;;;17.90;99.90;;;;;;5075401;28;20437;-81
2023/09/29 05:09:21;;;;;;;0.50;0.30;;;17.90;99.90;;;;;;5075909;28;20478;-82
2023/09/29 05:11:48;;;;;;;0.50;0.30;;;17.90;99.90;;;;;;5058468;28;20468;-81
2023/09/29 05:14:15;;;;;;;0.50;0.30;;;17.90;99.90;;;;;;5075430;28;20451;-82
2023/09/29 05:16:41;;;;;;;0.50;0.30;;;17.90;99.90;;;;;;5074922;28;20961;-81
2023/09/29 05:19:09;;;;;;;0.50;0.30;;;17.90;99.90;;;;;;5074080;28;20804;-81
2023/09/29 05:21:36;;;;;;;0.50;0.40;;;17.90;99.90;;;;;;5075338;28;20444;-81
2023/09/29 05:24:03;;;;;;;0.50;0.30;;;17.90;99.90;;;;;;5075239;28;20467;-81
2023/09/29 05:26:31;;;;;;;0.50;0.40;;;17.90;99.90;;;;;;5075103;28;20789;-80
2023/09/29 05:28:59;;;;;;;0.50;0.30;;;17.90;99.90;;;;;;5077239;28;20477;-80
2023/09/29 05:31:26;;;;;;;0.50;0.30;;;17.90;99.90;;;;;;5077204;28;20459;-80
2023/09/29 05:33:54;;;;;;;0.50;0.40;;;17.90;99.90;;;;;;5077855;28;20548;-81
2023/09/29 05:36:21;;;;;;;0.50;0.30;;;18.00;99.90;;;;;;5078204;28;20441;-81
2023/09/29 05:38:48;;;;;;;0.50;0.40;;;18.10;99.90;;;;;;5077259;28;20447;-80
2023/09/29 05:41:14;;;;;;;0.50;0.37;;;18.10;99.90;;;;;;5075358;28;20868;-80
2023/09/29 05:43:42;;;;;;;0.50;0.30;;;18.10;99.90;;;;;;5076821;28;20475;-80
2023/09/29 05:46:09;;;;;;;0.83;0.70;;;18.10;99.90;;;;;;5079386;28;20433;-80
2023/09/29 05:48:36;;;;;;;0.50;0.30;;;18.20;99.90;;;;;;5077375;28;20988;-79
2023/09/29 05:51:03;;;;;;;0.50;0.40;;;18.20;99.90;;;;;;5076214;28;20454;-80
2023/09/29 05:53:29;;;;;;;0.50;0.30;;;18.20;99.90;;;;;;5077858;28;20465;-81
2023/09/29 05:55:56;;;;;;;0.50;0.30;;;18.30;99.90;;;;;;5078088;28;20445;-80
2023/09/29 05:58:23;;;;;;;0.50;0.30;;;18.40;99.90;;;;;;5077705;28;20492;-80
2023/09/29 06:00:51;;;;;;;0.50;0.30;;;18.40;99.90;;;;;;5077362;28;20521;-80
2023/09/29 06:03:18;;;;;;;0.50;0.30;;;18.50;99.90;;;;;;5075602;28;20457;-79
2023/09/29 06:05:45;;;;;;;0.50;0.40;;;18.50;99.90;;;;;;5076376;28;20444;-80
2023/09/29 06:08:11;;;;;;;0.50;0.30;;;18.50;99.90;;;;;;5076751;28;20433;-80
2023/09/29 06:10:38;;;;;;;0.50;0.40;;;18.50;99.90;;;;;;5075074;28;20559;-79
2023/09/29 06:13:05;;;;;;;0.60;0.50;;;18.50;99.90;;;;;;5075946;28;20968;-80
2023/09/29 06:15:33;;;;;;;0.70;0.70;;;18.60;99.90;;;;;;5076518;28;20437;-81
2023/09/29 06:18:01;;;;;;;0.50;0.40;;;18.50;99.90;;;;;;5078135;28;20440;-80
2023/09/29 06:20:28;;;;;;;0.50;0.40;;;18.60;99.90;;;;;;5076746;28;20447;-80
2023/09/29 06:22:55;;;;;;;0.50;0.30;;;18.60;99.90;;;;;;5076699;28;20452;-79
2023/09/29 06:25:22;;;;;;;0.50;0.30;;;18.60;99.90;;;;;;5076548;28;20452;-80
2023/09/29 06:27:49;;;;;;;0.50;0.30;;;18.60;99.90;;;;;;5076275;28;20429;-81
2023/09/29 06:30:16;;;;;;;0.50;0.30;;;18.70;99.90;;;;;;5076871;28;20476;-81
2023/09/29 06:32:42;;;;;;;0.50;0.30;;;18.70;99.90;;;;;;5076711;28;20496;-80
2023/09/29 06:35:12;;;;;;;0.50;0.30;;;18.80;99.90;;;;;;5077463;28;20476;-81
2023/09/29 06:37:39;;;;;;;0.50;0.30;;;18.90;99.90;;;;;;5076443;28;20525;-81
2023/09/29 06:40:10;;;;;;;0.50;0.33;;;19.00;99.90;;;;;;5075070;28;20439;-80
2023/09/29 06:42:37;;;;;;;0.50;0.30;;;19.10;99.90;;;;;;5074954;28;20491;-81
2023/09/29 06:45:04;;;;;;;0.50;0.30;;;19.30;99.90;;;;;;5075915;28;20448;-81
2023/09/29 06:47:31;;;;;;;2.73;2.63;;;19.40;99.90;;;;;;5075199;28;20945;-80
2023/09/29 06:49:58;;;;;;;0.50;0.30;;;19.50;99.90;;;;;;5075388;28;20500;-80
2023/09/29 06:52:26;;;;;;;0.50;0.30;;;19.60;99.90;;;;;;5075287;28;20592;-81
2023/09/29 06:54:53;;;;;;;0.50;0.30;;;19.60;99.90;;;;;;5074925;28;20435;-80
2023/09/29 06:57:20;;;;;;;0.50;0.40;;;19.70;99.90;;;;;;5074972;28;20472;-80
2023/09/29 06:59:48;;;;;;;0.50;0.30;;;19.70;99.90;;;;;;5074211;28;20437;-80
2023/09/29 07:02:14;;;;;;;0.50;0.30;;;19.70;99.90;;;;;;5073636;28;20458;-80
2023/09/29 07:04:41;;;;;;;15.90;11.87;;;19.70;99.90;;;;;;5073242;28;20467;-80
2023/09/29 07:07:08;;;;;;;0.50;0.40;;;19.80;99.90;;;;;;5073613;28;20938;-80
2023/09/29 07:09:38;;;;;;;0.50;0.30;;;19.80;99.90;;;;;;5076018;28;21085;-80
2023/09/29 07:12:06;;;;;;;0.50;0.30;;;19.80;99.90;;;;;;5079584;28;20501;-79
2023/09/29 07:14:33;;;;;;;0.60;0.50;;;19.90;99.90;;;;;;5076809;28;20449;-80
2023/09/29 07:17:00;;;;;;;0.50;0.40;;;20.00;99.90;;;;;;5078295;28;20429;-80
2023/09/29 07:19:27;;;;;;;0.50;0.30;;;20.00;99.90;;;;;;5078221;28;20545;-81
2023/09/29 07:21:53;;;;;;;0.50;0.30;;;20.20;99.90;;;;;;5069327;28;20848;-80
2023/09/29 07:24:20;;;;;;;0.50;0.40;;;20.30;99.90;;;;;;5078099;28;20441;-80
2023/09/29 07:26:48;;;;;;;0.50;0.40;;;20.60;99.90;;;;;;5077366;28;20548;-80
2023/09/29 07:29:15;;;;;;;0.50;0.40;;;20.70;99.90;;;;;;5077432;28;20816;-79
2023/09/29 07:31:47;;;;;;;0.50;0.30;;;20.80;99.90;;;;;;5078136;28;20442;-81
2023/09/29 07:34:15;;;;;;;0.50;0.30;;;20.90;99.90;;;;;;5079151;28;20472;-80
2023/09/29 07:36:43;;;;;;;0.50;0.40;;;21.10;99.90;;;;;;5077153;28;20455;-81
2023/09/29 07:39:11;;;;;;;0.53;0.47;;;21.30;99.90;;;;;;5077345;28;20444;-82
2023/09/29 07:41:38;;;;;;;0.50;0.30;;;21.50;99.90;;;;;;5077427;28;20483;-81
2023/09/29 07:44:08;;;;;;;0.50;0.30;;;21.70;99.90;;;;;;5078207;28;20465;-80
2023/09/29 07:46:36;;;;;;;0.50;0.40;;;21.90;99.90;;;;;;5077283;28;20442;-79
2023/09/29 07:49:03;;;;;;;0.50;0.30;;;22.10;99.90;;;;;;5077758;28;20913;-80
2023/09/29 07:51:30;;;;;;;0.50;0.30;;;22.30;99.90;;;;;;5077329;28;20447;-79
2023/09/29 07:53:57;;;;;;;0.50;0.40;;;22.40;99.90;;;;;;5077703;28;20459;-80
2023/09/29 07:56:24;;;;;;;1.90;1.80;;;22.70;99.90;;;;;;5078369;28;20532;-81
2023/09/29 07:58:51;;;;;;;0.50;0.30;;;23.30;99.90;;;;;;5076199;28;20775;-80
2023/09/29 08:01:19;;;;;;;1.07;0.60;;;24.10;99.90;;;;;;5078095;28;20445;-81
2023/09/29 08:03:45;;;;;;;2.30;0.67;;;25.00;99.90;;;;;;5078086;28;20477;-81
2023/09/29 08:06:14;;;;;;;0.50;0.30;;;25.70;99.90;;;;;;5078095;28;20445;-81
2023/09/29 08:08:40;;;;;;;0.50;0.30;;;25.70;99.90;;;;;;5076784;28;20452;-81
2023/09/29 08:11:07;;;;;;;0.50;0.30;;;25.40;99.90;;;;;;5079322;28;20482;-81
2023/09/29 08:13:34;;;;;;;0.50;0.30;;;25.00;99.90;;;;;;5078751;28;20566;-81
2023/09/29 08:16:01;;;;;;;0.50;0.30;;;24.60;99.90;;;;;;5079057;28;20467;-81
2023/09/29 08:18:29;;;;;;;0.50;0.30;;;24.00;99.90;;;;;;5078394;28;20442;-81
2023/09/29 08:20:56;;;;;;;0.50;0.40;;;23.70;99.90;;;;;;5078560;28;20451;-81
2023/09/29 08:23:23;;;;;;;0.50;0.30;;;23.40;99.90;;;;;;5081729;28;20478;-81
2023/09/29 08:25:50;;;;;;;0.50;0.50;;;23.10;99.90;;;;;;5078730;28;20791;-81
2023/09/29 08:28:16;;;;;;;0.50;0.30;;;22.90;99.90;;;;;;5079065;28;20441;-81
2023/09/29 08:30:42;;;;;;;0.50;0.30;;;22.60;99.90;;;;;;5079094;28;20483;-81
2023/09/29 08:33:09;;;;;;;0.50;0.30;;;22.40;99.90;;;;;;5078785;28;20563;-81
2023/09/29 08:35:37;;;;;;;0.80;0.37;;;22.20;99.90;;;;;;5078587;28;20196;-81
2023/09/29 08:38:05;;;;;;;0.50;0.30;;;22.10;99.90;;;;;;5077338;28;20440;-80
2023/09/29 08:40:36;;;;;;;1.77;0.77;;;22.00;99.90;;;;;;5076101;28;20812;-80
2023/09/29 08:43:10;;;;;;;0.50;0.40;;;21.90;99.90;;;;;;5076176;28;20825;-80
2023/09/29 08:45:42;;;;;;;0.50;0.40;;;21.80;99.90;;;;;;5075938;28;20989;-80
2023/09/29 08:48:11;;;;;;;0.80;0.67;;;21.70;99.90;;;;;;5076301;28;20443;-80
2023/09/29 08:50:41;;;;;;;0.50;0.30;;;21.80;99.90;;;;;;5075847;28;21120;-80
2023/09/29 08:53:10;;;;;;;0.50;0.40;;;21.80;99.90;;;;;;5075237;28;20462;-80
2023/09/29 08:55:38;;;;;;;0.50;0.30;;;21.90;99.90;;;;;;5075813;28;20486;-80
2023/09/29 08:58:07;;;;;;;0.50;0.40;;;22.00;99.90;;;;;;5075392;28;20447;-79
2023/09/29 09:00:34;;;;;;;0.50;0.30;;;22.20;99.90;;;;;;5074839;28;20441;-80
2023/09/29 09:03:02;;;;;;;0.50;0.30;;;22.50;99.90;;;;;;5075720;28;20841;-80
2023/09/29 09:05:29;;;;;;;0.50;0.30;;;22.60;99.90;;;;;;5075870;28;20447;-80
2023/09/29 09:08:01;;;;;;;0.50;0.40;;;22.70;99.90;;;;;;5075828;28;20444;-79
2023/09/29 09:10:32;;;;;;;0.50;0.40;;;22.80;99.90;;;;;;5075975;28;20537;-81
2023/09/29 09:12:59;;;;;;;0.50;0.30;;;22.90;99.90;;;;;;5076937;28;20452;-81
2023/09/29 09:15:26;;;;;;;0.50;0.30;;;23.00;99.90;;;;;;5076513;28;20542;-79
2023/09/29 09:17:54;;;;;;;0.50;0.30;;;23.00;99.90;;;;;;5076006;28;20444;-80
2023/09/29 09:20:21;;;;;;;0.60;0.60;;;23.10;99.90;;;;;;5077537;28;20452;-80
2023/09/29 09:22:58;;;;;;;4.80;1.10;;;22.90;99.90;;;;;;5075242;28;20467;-79
2023/09/29 09:25:36;;;;;;;5.93;0.80;;;22.90;99.90;;;;;;5077382;28;20433;-80
2023/09/29 09:28:03;;;;;;;0.50;0.30;;;23.10;99.90;;;;;;5061585;28;20489;-80
2023/09/29 09:30:35;;;;;;;0.50;0.30;;;23.50;99.90;;;;;;5076791;28;20480;-78
2023/09/29 09:33:05;;;;;;;0.60;0.50;;;24.20;99.90;;;;;;5059201;28;20470;-80
2023/09/29 09:35:32;;;;;;;0.50;0.30;;;24.30;99.90;;;;;;5076628;28;20463;-80
2023/09/29 09:38:02;;;;;;;0.60;0.43;;;24.00;99.90;;;;;;5075353;28;20511;-80
2023/09/29 09:40:31;;;;;;;14.37;1.03;;;23.60;99.90;;;;;;5077492;28;20451;-80
2023/09/29 09:43:02;;;;;;;0.50;0.40;;;23.40;99.90;;;;;;5077956;28;20524;-81
2023/09/29 09:45:37;;;;;;;0.50;0.30;;;23.20;99.90;;;;;;5078189;28;20526;-80
2023/09/29 09:48:05;;;;;;;0.50;0.40;;;22.90;99.90;;;;;;5078318;28;20435;-80
2023/09/29 09:50:36;;;;;;;0.90;0.40;;;22.70;99.90;;;;;;5075831;28;20566;-79
2023/09/29 09:53:08;;;;;;;0.70;0.60;;;22.60;99.90;;;;;;5075658;28;20473;-81
2023/09/29 09:55:39;;;;;;;0.60;0.60;;;22.50;99.90;;;;;;5077179;28;20459;-81
2023/09/29 09:58:13;;;;;;;0.50;0.40;;;22.40;99.90;;;;;;5061421;28;20451;-81
2023/09/29 10:00:42;;;;;;;10.00;1.87;;;22.40;99.90;;;;;;5077309;28;20435;-81
2023/09/29 10:03:12;;;;;;;0.70;0.67;;;22.30;99.90;;;;;;5076212;28;20478;-81
2023/09/29 10:05:41;;;;;;;0.50;0.30;;;22.40;99.90;;;;;;5074374;28;20532;-81
2023/09/29 10:08:12;;;;;;;0.80;0.70;;;22.60;99.90;;;;;;5075169;28;20930;-81
2023/09/29 10:10:41;;;;;;;0.50;0.40;;;22.60;99.90;;;;;;5074643;28;20483;-81
2023/09/29 10:13:11;;;;;;;0.50;0.30;;;22.60;99.90;;;;;;5074661;28;20872;-81
2023/09/29 10:15:39;;;;;;;2.63;1.70;;;22.60;99.90;;;;;;5073592;28;20804;-81
2023/09/29 10:18:17;;;;;;;0.50;0.30;;;22.80;99.90;;;;;;5074274;28;20447;-79
2023/09/29 10:20:50;;;;;;;0.50;0.43;;;22.70;99.90;;;;;;5074416;28;20467;-80
2023/09/29 10:23:19;;;;;;;0.50;0.30;;;22.50;99.90;;;;;;5074528;28;20958;-80
2023/09/29 10:25:58;;;;;;;0.50;0.30;;;22.50;99.90;;;;;;5076710;28;20930;-81
2023/09/29 10:28:31;;;;;;;0.50;0.40;;;22.50;99.90;;;;;;5073740;28;20949;-80
2023/09/29 10:31:06;;;;;;;0.50;0.37;;;22.50;99.90;;;;;;5074618;28;20487;-81
2023/09/29 10:33:34;;;;;;;7.50;0.70;;;22.60;99.90;;;;;;5075334;28;20974;-81
2023/09/29 10:36:00;;;;;;;0.50;0.50;;;22.60;99.90;;;;;;5073067;28;20832;-81
2023/09/29 10:38:29;;;;;;;0.90;0.73;;;23.40;99.90;;;;;;5072964;28;20441;-81
2023/09/29 10:40:58;;;;;;;1.47;0.93;;;24.00;99.90;;;;;;5072694;28;20444;-81
2023/09/29 10:43:25;;;;;;;0.50;0.40;;;24.30;99.90;;;;;;5072275;28;20567;-80
2023/09/29 10:45:52;;;;;;;0.70;0.50;;;24.50;99.90;;;;;;5075441;28;20872;-80
2023/09/29 10:48:23;;;;;;;0.50;0.40;;;25.00;99.90;;;;;;5075662;28;20457;-81
2023/09/29 10:50:50;;;;;;;2.10;2.00;;;25.50;99.90;;;;;;5074256;28;20476;-81
2023/09/29 10:53:18;;;;;;;0.80;0.80;;;25.40;99.90;;;;;;5074272;28;20456;-81
2023/09/29 10:55:48;;;;;;;0.50;0.30;;;25.20;99.90;;;;;;5074072;28;20458;-81
2023/09/29 10:58:16;;;;;;;1.57;1.27;;;25.20;99.90;;;;;;5074135;28;20529;-81
2023/09/29 11:00:46;;;;;;;0.50;0.30;;;24.90;99.90;;;;;;5073570;28;20515;-81
2023/09/29 11:03:14;;;;;;;0.80;0.80;;;24.70;99.90;;;;;;5074935;28;20959;-81
2023/09/29 11:05:51;;;;;;;0.50;0.50;;;25.00;99.90;;;;;;5073178;28;20433;-82
2023/09/29 11:08:20;;;;;;;0.50;0.30;;;25.60;99.90;;;;;;5073977;28;20464;-81
2023/09/29 11:11:00;;;;;;;0.50;0.30;;;26.10;99.90;;;;;;5073135;28;20522;-81
2023/09/29 11:13:28;;;;;;;0.50;0.30;;;25.90;99.90;;;;;;5075452;28;20460;-81
2023/09/29 11:15:56;;;;;;;0.50;0.30;;;25.60;99.90;;;;;;5075085;28;20441;-81
2023/09/29 11:18:30;;;;;;;0.50;0.40;;;25.20;99.90;;;;;;5073666;28;20609;-81
2023/09/29 11:20:59;;;;;;;0.50;0.40;;;24.70;99.90;;;;;;5075230;28;20432;-82
2023/09/29 11:23:28;;;;;;;0.60;0.60;;;24.70;99.90;;;;;;5076192;28;20521;-81
2023/09/29 11:25:58;;;;;;;0.70;0.70;;;24.30;99.90;;;;;;5074607;28;20449;-81
2023/09/29 11:28:26;;;;;;;0.50;0.30;;;24.10;99.90;;;;;;5075617;28;20468;-83
2023/09/29 11:30:54;;;;;;;0.50;0.30;;;24.40;99.90;;;;;;5076836;28;20858;-82
2023/09/29 11:33:22;;;;;;;1.00;0.97;;;24.70;99.90;;;;;;5075749;28;20839;-83
2023/09/29 11:35:50;;;;;;;0.50;0.30;;;24.90;99.90;;;;;;5076954;28;20554;-82
2023/09/29 11:38:19;;;;;;;1.07;0.73;;;25.20;99.90;;;;;;5076110;28;20455;-82
2023/09/29 11:40:46;;;;;;;0.50;0.30;;;25.00;99.90;;;;;;5073457;28;20444;-82
2023/09/29 11:43:15;;;;;;;0.50;0.30;;;24.50;99.90;;;;;;5074514;28;20467;-81
2023/09/29 11:45:42;;;;;;;0.50;0.30;;;24.20;99.90;;;;;;5073111;28;20965;-80
2023/09/29 11:48:09;;;;;;;0.70;0.70;;;24.10;99.90;;;;;;5074213;28;20626;-81
2023/09/29 11:50:36;;;;;;;0.93;0.57;;;24.00;99.90;;;;;;5075867;28;20448;-82
2023/09/29 11:53:06;;;;;;;0.50;0.30;;;23.70;99.90;;;;;;5074745;28;20456;-81
2023/09/29 11:55:34;;;;;;;0.50;0.30;;;23.50;99.90;;;;;;5079932;28;20446;-81
2023/09/29 11:58:01;;;;;;;0.60;0.60;;;23.40;99.90;;;;;;5081637;28;20447;-81
2023/09/29 12:00:29;;;;;;;0.50;0.30;;;23.50;99.90;;;;;;5081707;28;20448;-81
2023/09/29 12:02:56;;;;;;;0.50;0.40;;;23.60;99.90;;;;;;5083438;28;20526;-81
2023/09/29 12:05:23;;;;;;;0.50;0.30;;;24.20;99.90;;;;;;5084799;28;20441;-81
2023/09/29 12:07:50;;;;;;;0.50;0.30;;;24.70;99.90;;;;;;5083350;28;20497;-81
2023/09/29 12:10:17;;;;;;;0.50;0.30;;;25.00;99.90;;;;;;5084725;28;20440;-83
2023/09/29 12:12:43;;;;;;;1.83;1.00;;;25.40;99.90;;;;;;5085718;28;20547;-81
2023/09/29 12:15:13;;;;;;;0.50;0.40;;;25.60;99.90;;;;;;5084505;28;20539;-82
2023/09/29 12:17:41;;;;;;;1.00;0.60;;;26.10;99.90;;;;;;5079981;28;20958;-81
2023/09/29 12:20:13;;;;;;;3.67;1.23;;;26.30;99.90;;;;;;5070392;28;20436;-80
2023/09/29 12:22:43;;;;;;;0.80;0.60;;;25.40;99.90;;;;;;5078347;28;20874;-81
2023/09/29 12:25:11;;;;;;;0.50;0.30;;;25.00;99.90;;;;;;5078747;28;20441;-81
2023/09/29 12:27:38;;;;;;;0.53;0.53;;;24.60;99.90;;;;;;5077518;28;20528;-80
2023/09/29 12:30:08;;;;;;;0.50;0.30;;;24.20;99.90;;;;;;5077048;28;20433;-81
2023/09/29 12:32:35;;;;;;;0.50;0.40;;;24.00;99.90;;;;;;5077382;28;20482;-80
2023/09/29 12:35:04;;;;;;;0.50;0.33;;;23.70;99.90;;;;;;5077620;28;20441;-81
2023/09/29 12:37:31;;;;;;;0.50;0.50;;;23.50;99.90;;;;;;5078297;28;20444;-80
2023/09/29 12:39:58;;;;;;;0.70;0.50;;;23.30;99.90;;;;;;5077213;28;20439;-81
2023/09/29 12:42:25;;;;;;;1.17;1.07;;;23.00;99.90;;;;;;5077378;28;20464;-81
2023/09/29 12:44:52;;;;;;;0.80;0.80;;;22.90;99.90;;;;;;5077441;28;20533;-78
2023/09/29 12:47:19;;;;;;;0.60;0.60;;;22.70;99.90;;;;;;5077195;28;20443;-80
2023/09/29 12:49:46;;;;;;;0.50;0.30;;;22.50;99.90;;;;;;5077088;28;20537;-80